createdAt,value
2022-08-10T00:01:52.099Z,2.00
2022-08-10T00:04:24.115Z,2.57
2022-08-10T00:06:53.566Z,2.33
2022-08-10T00:09:24.827Z,2.37
2022-08-10T00:11:53.598Z,2.20
2022-08-10T00:14:22.006Z,2.67
2022-08-10T00:16:50.674Z,2.40
2022-08-10T00:19:19.456Z,2.10
2022-08-10T00:21:48.201Z,2.30
2022-08-10T00:24:17.069Z,2.10
2022-08-10T00:28:02.326Z,2.50
2022-08-10T00:29:36.265Z,2.33
2022-08-10T00:32:05.902Z,2.50
2022-08-10T00:34:35.135Z,2.60
2022-08-10T00:37:03.894Z,2.97
2022-08-10T00:39:36.204Z,2.50
2022-08-10T00:42:09.807Z,2.63
2022-08-10T00:44:39.934Z,2.80
2022-08-10T00:47:16.272Z,2.33
2022-08-10T00:49:58.828Z,2.87
2022-08-10T00:52:28.793Z,2.83
2022-08-10T00:54:57.642Z,3.30
2022-08-10T00:57:27.788Z,3.77
2022-08-10T01:00:00.134Z,3.10
2022-08-10T01:02:31.001Z,3.37
2022-08-10T01:05:02.487Z,3.03
2022-08-10T01:07:52.336Z,3.20
2022-08-10T01:10:39.658Z,3.03
2022-08-10T01:13:14.575Z,3.50
2022-08-10T01:15:54.562Z,2.93
2022-08-10T01:18:33.684Z,2.87
2022-08-10T01:21:33.831Z,3.57
2022-08-10T01:24:24.946Z,2.93
2022-08-10T01:27:27.139Z,3.33
2022-08-10T01:30:08.950Z,4.30
2022-08-10T01:32:55.307Z,3.20
2022-08-10T01:35:30.449Z,3.60
2022-08-10T01:38:05.110Z,3.10
2022-08-10T01:40:43.347Z,3.80
2022-08-10T01:43:15.918Z,3.67
2022-08-10T01:45:50.714Z,3.80
2022-08-10T01:48:29.207Z,3.77
2022-08-10T01:51:02.648Z,3.67
2022-08-10T01:53:41.074Z,4.13
2022-08-10T01:56:14.248Z,3.83
2022-08-10T01:58:45.468Z,3.27
2022-08-10T02:01:18.884Z,4.10
2022-08-10T02:04:04.007Z,3.67
2022-08-10T02:06:36.928Z,3.60
2022-08-10T02:09:07.629Z,3.90
2022-08-10T02:12:06.252Z,4.23
2022-08-10T02:14:32.966Z,4.30
2022-08-10T02:17:07.845Z,3.97
2022-08-10T02:19:40.333Z,4.13
2022-08-10T02:22:35.909Z,4.07
2022-08-10T02:25:01.029Z,4.00
2022-08-10T02:27:30.992Z,3.70
2022-08-10T02:30:00.285Z,4.00
2022-08-10T02:32:36.199Z,4.77
2022-08-10T02:35:18.672Z,4.07
2022-08-10T02:37:53.922Z,4.63
2022-08-10T02:45:09.050Z,4.47
2022-08-10T02:45:26.508Z,3.93
2022-08-10T02:46:18.138Z,4.30
2022-08-10T02:48:55.450Z,4.47
2022-08-10T02:52:06.813Z,4.73
2022-08-10T02:54:21.609Z,4.43
2022-08-10T02:56:56.671Z,5.27
2022-08-10T02:59:40.027Z,5.20
2022-08-10T03:02:13.801Z,4.53
2022-08-10T03:04:55.303Z,4.77
2022-08-10T03:07:43.280Z,5.20
2022-08-10T03:10:17.937Z,4.43
2022-08-10T03:12:52.995Z,4.80
2022-08-10T03:15:22.982Z,4.97
2022-08-10T03:17:57.959Z,3.87
2022-08-10T03:20:34.368Z,5.30
2022-08-10T03:23:11.271Z,4.70
2022-08-10T03:25:40.347Z,5.03
2022-08-10T03:28:09.740Z,4.77
2022-08-10T03:30:38.662Z,5.80
2022-08-10T03:33:08.885Z,5.20
2022-08-10T03:35:38.927Z,5.30
2022-08-10T03:38:07.558Z,6.00
2022-08-10T03:40:45.434Z,5.53
2022-08-10T03:43:18.488Z,5.93
2022-08-10T03:45:55.642Z,5.30
2022-08-10T03:48:32.333Z,5.77
2022-08-10T03:51:17.954Z,5.33
2022-08-10T03:54:05.931Z,5.90
2022-08-10T03:56:39.724Z,6.03
2022-08-10T03:59:11.419Z,5.47
2022-08-10T04:02:42.273Z,4.60
2022-08-10T04:04:29.175Z,4.90
2022-08-10T04:07:01.804Z,5.17
2022-08-10T04:09:54.191Z,6.40
2022-08-10T04:12:21.924Z,6.53
2022-08-10T04:14:52.737Z,5.80
2022-08-10T04:18:03.293Z,6.60
2022-08-10T04:20:19.675Z,6.40
2022-08-10T04:22:53.065Z,6.60
2022-08-10T04:25:23.840Z,6.60
2022-08-10T04:27:53.552Z,6.13
2022-08-10T04:30:22.622Z,6.67
2022-08-10T04:32:54.947Z,6.80
2022-08-10T04:35:25.337Z,6.67
2022-08-10T04:37:56.998Z,6.20
2022-08-10T04:40:29.871Z,6.77
2022-08-10T04:43:05.878Z,6.20
2022-08-10T04:45:47.417Z,6.53
2022-08-10T04:48:42.603Z,6.70
2022-08-10T04:51:10.733Z,6.53
2022-08-10T04:54:03.118Z,6.83
2022-08-10T04:56:31.588Z,7.20
2022-08-10T04:59:00.548Z,6.73
2022-08-10T05:02:21.778Z,5.70
2022-08-10T05:04:34.628Z,6.33
2022-08-10T05:07:07.045Z,6.03
2022-08-10T05:10:03.403Z,6.83
2022-08-10T05:12:25.798Z,5.93
2022-08-10T05:14:54.677Z,5.90
2022-08-10T05:17:24.105Z,6.60
2022-08-10T05:20:03.718Z,6.50
2022-08-10T05:22:39.803Z,5.87
2022-08-10T05:25:12.629Z,5.93
2022-08-10T05:27:41.981Z,6.57
2022-08-10T05:30:13.803Z,7.00
2022-08-10T05:32:57.138Z,6.40
2022-08-10T05:35:39.093Z,6.37
2022-08-10T05:38:19.753Z,5.93
2022-08-10T05:40:51.887Z,6.13
2022-08-10T05:43:22.080Z,6.07
2022-08-10T05:46:17.164Z,6.23
2022-08-10T05:48:59.033Z,6.80
2022-08-10T05:51:31.047Z,6.10
2022-08-10T05:54:04.599Z,6.67
2022-08-10T05:56:55.859Z,6.47
2022-08-10T06:00:32.837Z,5.97
2022-08-10T06:02:31.310Z,6.77
2022-08-10T06:05:07.558Z,6.97
2022-08-10T06:07:38.902Z,6.27
2022-08-10T06:10:10.655Z,6.53
2022-08-10T06:12:54.936Z,6.73
2022-08-10T06:15:51.559Z,6.73
2022-08-10T06:18:15.740Z,6.33
2022-08-10T06:20:44.722Z,6.17
2022-08-10T06:23:13.693Z,6.83
2022-08-10T06:26:10.405Z,6.83
2022-08-10T06:28:37.824Z,6.60
2022-08-10T06:31:08.342Z,7.03
2022-08-10T06:33:40.525Z,6.63
2022-08-10T06:36:10.089Z,6.53
2022-08-10T06:38:40.023Z,6.37
2022-08-10T06:41:16.826Z,5.80
2022-08-10T06:43:57.932Z,6.07
2022-08-10T06:46:29.166Z,6.40
2022-08-10T06:49:02.682Z,6.10
2022-08-10T06:51:33.408Z,6.07
2022-08-10T06:54:05.732Z,6.87
2022-08-10T06:56:41.552Z,6.67
2022-08-10T06:59:27.451Z,6.43
2022-08-10T07:02:00.976Z,5.37
2022-08-10T07:04:34.821Z,5.83
2022-08-10T07:07:05.795Z,5.83
2022-08-10T07:09:37.893Z,5.93
2022-08-10T07:12:09.370Z,6.40
2022-08-10T07:14:43.638Z,5.60
2022-08-10T07:17:18.955Z,5.80
2022-08-10T07:19:52.460Z,5.13
2022-08-10T07:23:22.822Z,5.73
2022-08-10T07:25:13.729Z,5.27
2022-08-10T07:28:00.304Z,5.40
2022-08-10T07:30:35.066Z,5.90
2022-08-10T07:33:05.584Z,5.20
2022-08-10T07:35:41.776Z,5.10
2022-08-10T07:38:15.140Z,5.63
2022-08-10T07:40:44.591Z,5.30
2022-08-10T07:43:15.526Z,4.80
2022-08-10T07:45:48.616Z,6.00
2022-08-10T07:48:20.978Z,5.37
2022-08-10T07:50:55.217Z,5.30
2022-08-10T07:53:28.258Z,5.20
2022-08-10T07:56:03.663Z,5.03
2022-08-10T07:58:51.407Z,5.03
2022-08-10T08:01:28.465Z,4.90
2022-08-10T08:04:10.634Z,4.70
2022-08-10T08:06:42.701Z,4.93
2022-08-10T08:09:11.929Z,4.80
2022-08-10T08:11:45.725Z,4.30
2022-08-10T08:14:16.316Z,4.60
2022-08-10T08:16:51.238Z,4.77
2022-08-10T08:19:26.553Z,4.83
2022-08-10T08:24:05.427Z,4.43
2022-08-10T08:24:47.309Z,4.40
2022-08-10T08:27:19.865Z,4.33
2022-08-10T08:29:50.799Z,4.20
2022-08-10T08:32:23.747Z,3.77
2022-08-10T08:34:57.636Z,3.83
2022-08-10T08:38:29.198Z,4.43
2022-08-10T08:40:23.714Z,4.57
2022-08-10T08:43:10.526Z,4.50
2022-08-10T08:46:00.826Z,4.23
2022-08-10T08:48:53.269Z,4.03
2022-08-10T08:52:07.272Z,4.47
2022-08-10T08:54:33.361Z,4.00
2022-08-10T08:57:07.132Z,3.60
2022-08-10T08:59:53.343Z,4.17
2022-08-10T09:02:35.935Z,3.33
2022-08-10T09:05:22.821Z,3.80
2022-08-10T09:08:14.469Z,3.70
2022-08-10T09:10:51.964Z,3.10
2022-08-10T09:13:29.581Z,3.33
2022-08-10T09:16:10.028Z,3.10
2022-08-10T09:18:46.716Z,2.73
2022-08-10T09:21:21.026Z,3.77
2022-08-10T09:24:05.429Z,3.97
2022-08-10T09:26:46.823Z,3.47
2022-08-10T09:29:24.044Z,4.43
2022-08-10T09:36:15.283Z,3.67
2022-08-10T09:36:26.784Z,3.23
2022-08-10T09:38:12.354Z,3.30
2022-08-10T09:41:00.689Z,3.40
2022-08-10T09:43:42.095Z,3.27
2022-08-10T09:46:22.630Z,3.00
2022-08-10T09:49:02.536Z,3.27
2022-08-10T09:51:48.066Z,3.30
2022-08-10T09:54:37.555Z,3.27
2022-08-10T09:57:44.312Z,3.20
2022-08-10T10:00:21.422Z,3.17
2022-08-10T10:03:09.757Z,3.07
2022-08-10T10:05:54.542Z,3.20
2022-08-10T10:08:31.277Z,3.27
2022-08-10T10:11:13.265Z,3.17
2022-08-10T10:14:02.909Z,3.30
2022-08-10T10:16:48.327Z,3.10
2022-08-10T10:19:32.092Z,3.10
2022-08-10T10:22:22.129Z,3.20
2022-08-10T10:24:57.658Z,2.93
2022-08-10T10:27:40.884Z,2.92
2022-08-10T10:30:12.429Z,3.00
2022-08-10T10:32:57.655Z,3.08
2022-08-10T10:35:39.169Z,3.00
2022-08-10T10:38:10.849Z,3.13
2022-08-10T10:40:46.927Z,2.90
2022-08-10T10:43:41.910Z,3.28
2022-08-10T10:46:25.865Z,3.35
2022-08-10T10:49:04.917Z,3.90
2022-08-10T10:51:43.859Z,3.17
2022-08-10T10:54:23.507Z,3.67
2022-08-10T10:56:59.771Z,3.22
2022-08-10T10:59:55.334Z,4.10
2022-08-10T11:02:48.069Z,3.45
2022-08-10T11:05:24.455Z,3.75
2022-08-10T11:07:59.161Z,4.00
2022-08-10T11:10:44.938Z,3.25
2022-08-10T11:14:25.482Z,3.20
2022-08-10T11:16:29.374Z,3.75
2022-08-10T11:19:04.982Z,3.22
2022-08-10T11:21:47.107Z,3.53
2022-08-10T11:24:42.980Z,3.40
2022-08-10T11:27:22.127Z,3.53
2022-08-10T11:30:03.904Z,3.40
2022-08-10T11:32:44.338Z,3.53
2022-08-10T11:35:24.115Z,3.47
2022-08-10T11:38:34.209Z,3.85
2022-08-10T11:41:12.818Z,3.42
2022-08-10T11:43:55.398Z,3.20
2022-08-10T11:46:31.359Z,2.97
2022-08-10T11:49:14.409Z,3.55
2022-08-10T11:51:47.154Z,3.15
2022-08-10T11:54:25.469Z,2.92
2022-08-10T11:57:02.183Z,2.65
2022-08-10T11:59:58.068Z,3.05
2022-08-10T12:02:32.978Z,3.35
2022-08-10T12:05:08.391Z,3.10
2022-08-10T12:10:01.922Z,2.83
2022-08-10T12:10:35.373Z,2.80
2022-08-10T12:13:12.864Z,2.63
2022-08-10T12:15:52.388Z,3.03
2022-08-10T12:18:26.719Z,3.00
2022-08-10T12:21:02.073Z,2.78
2022-08-10T12:23:39.445Z,3.28
2022-08-10T12:26:14.060Z,3.22
2022-08-10T12:28:50.912Z,3.25
2022-08-10T12:31:24.608Z,2.67
2022-08-10T12:34:09.854Z,3.00
2022-08-10T12:36:43.428Z,2.78
2022-08-10T12:39:18.040Z,2.58
2022-08-10T12:41:52.860Z,2.42
2022-08-10T12:44:41.796Z,2.75
2022-08-10T12:47:20.309Z,3.05
2022-08-10T12:50:23.887Z,3.20
2022-08-10T12:52:58.199Z,2.88
2022-08-10T12:55:29.113Z,2.97
2022-08-10T12:57:59.943Z,2.85
2022-08-10T13:00:32.947Z,3.40
2022-08-10T13:03:02.960Z,2.80
2022-08-10T13:06:02.085Z,2.97
2022-08-10T13:08:42.954Z,3.33
2022-08-10T13:11:26.263Z,3.08
2022-08-10T13:14:10.314Z,2.72
2022-08-10T13:16:42.469Z,2.30
2022-08-10T13:19:13.246Z,2.95
2022-08-10T13:21:43.146Z,2.60
2022-08-10T13:24:16.215Z,2.75
2022-08-10T13:27:25.857Z,2.83
2022-08-10T13:29:44.777Z,2.78
2022-08-10T13:32:23.594Z,2.88
2022-08-10T13:34:54.015Z,3.00
2022-08-10T13:37:31.564Z,2.50
2022-08-10T13:40:04.356Z,2.80
2022-08-10T13:42:38.036Z,2.70
2022-08-10T13:45:10.632Z,2.80
2022-08-10T13:47:48.667Z,2.65
2022-08-10T13:50:32.015Z,2.83
2022-08-10T13:53:09.972Z,2.50
2022-08-10T13:55:53.877Z,2.83
2022-08-10T13:58:27.729Z,3.10
2022-08-10T14:00:59.303Z,2.53
2022-08-10T14:03:29.895Z,2.83
2022-08-10T14:05:59.775Z,2.70
2022-08-10T14:08:32.468Z,2.92
2022-08-10T14:11:11.594Z,2.97
2022-08-10T14:13:47.629Z,2.83
2022-08-10T14:16:18.613Z,2.30
2022-08-10T14:18:51.093Z,2.63
2022-08-10T14:21:20.549Z,2.95
2022-08-10T14:23:53.762Z,2.55
2022-08-10T14:26:27.496Z,3.03
2022-08-10T14:28:59.556Z,2.40
2022-08-10T14:31:33.804Z,2.47
2022-08-10T14:34:05.240Z,2.83
2022-08-10T14:36:41.803Z,2.50
2022-08-10T14:39:16.767Z,2.40
2022-08-10T14:42:01.567Z,2.03
2022-08-10T14:44:46.830Z,2.60
2022-08-10T14:47:53.905Z,2.58
2022-08-10T14:50:09.093Z,2.45
2022-08-10T14:52:44.101Z,2.25
2022-08-10T14:55:19.423Z,2.60
2022-08-10T14:58:20.124Z,2.20
2022-08-10T15:00:43.684Z,1.92
2022-08-10T15:03:58.464Z,1.90
2022-08-10T15:06:17.105Z,2.28
2022-08-10T15:08:48.053Z,2.05
2022-08-10T15:12:15.712Z,1.88
2022-08-10T15:14:25.923Z,2.10
2022-08-10T15:16:59.412Z,1.92
2022-08-10T15:20:02.326Z,2.20
2022-08-10T15:22:41.231Z,2.10
2022-08-10T15:25:17.977Z,1.60
2022-08-10T15:27:54.773Z,1.98
2022-08-10T15:30:32.233Z,2.53
2022-08-10T15:33:57.611Z,1.92
2022-08-10T15:36:34.532Z,2.25
2022-08-10T15:39:12.743Z,2.03
2022-08-10T15:42:00.261Z,2.10
2022-08-10T15:44:41.240Z,2.28
2022-08-10T15:47:21.512Z,2.20
2022-08-10T15:49:59.979Z,2.55
2022-08-10T15:52:39.362Z,2.40
2022-08-10T15:55:44.247Z,2.30
2022-08-10T15:58:39.304Z,2.20
2022-08-10T16:02:12.741Z,2.10
2022-08-10T16:04:08.340Z,1.85
2022-08-10T16:06:43.006Z,1.70
2022-08-10T16:10:10.709Z,2.20
2022-08-10T16:12:14.741Z,1.83
2022-08-10T16:14:48.605Z,2.42
2022-08-10T16:17:18.773Z,2.53
2022-08-10T16:19:52.775Z,1.85
2022-08-10T16:22:35.573Z,1.75
2022-08-10T16:25:13.592Z,1.70
2022-08-10T16:27:43.370Z,1.70
2022-08-10T16:30:13.487Z,1.90
2022-08-10T16:32:43.298Z,2.20
2022-08-10T16:35:21.381Z,2.42
2022-08-10T16:37:58.227Z,2.20
2022-08-10T16:40:30.467Z,2.00
2022-08-10T16:43:01.115Z,1.95
2022-08-10T16:45:36.954Z,2.42
2022-08-10T16:48:09.004Z,2.35
2022-08-10T16:50:43.020Z,1.63
2022-08-10T16:53:14.010Z,1.85
2022-08-10T16:55:50.556Z,1.58
2022-08-10T16:58:25.419Z,1.95
2022-08-10T17:00:54.725Z,1.75
2022-08-10T17:04:08.423Z,1.92
2022-08-10T17:06:25.112Z,1.88
2022-08-10T17:08:57.088Z,1.65
2022-08-10T17:11:31.998Z,1.83
2022-08-10T17:14:02.877Z,1.85
2022-08-10T17:16:36.403Z,1.60
2022-08-10T17:19:09.084Z,1.80
2022-08-10T17:21:51.638Z,1.42
2022-08-10T17:24:25.272Z,2.00
2022-08-10T17:26:57.325Z,1.63
2022-08-10T17:29:58.484Z,1.73
2022-08-10T17:32:25.247Z,1.70
2022-08-10T17:34:58.521Z,2.03
2022-08-10T17:37:37.791Z,1.30
2022-08-10T17:40:09.748Z,1.73
2022-08-10T17:42:41.173Z,1.90
2022-08-10T17:45:46.016Z,2.70
2022-08-10T17:48:09.555Z,1.38
2022-08-10T17:50:39.931Z,1.73
2022-08-10T17:53:16.954Z,2.05
2022-08-10T17:55:48.189Z,1.65
2022-08-10T17:58:18.859Z,1.80
2022-08-10T18:00:50.957Z,1.77
2022-08-10T18:03:25.529Z,1.65
2022-08-10T18:05:56.691Z,1.63
2022-08-10T18:08:33.910Z,1.77
2022-08-10T18:11:04.679Z,1.70
2022-08-10T18:13:56.529Z,2.30
2022-08-10T18:16:28.865Z,1.45
2022-08-10T18:19:01.046Z,2.05
2022-08-10T18:21:32.212Z,1.65
2022-08-10T18:24:12.863Z,2.05
2022-08-10T18:26:49.027Z,1.83
2022-08-10T18:29:21.739Z,1.73
2022-08-10T18:31:56.838Z,1.88
2022-08-10T18:34:27.742Z,2.13
2022-08-10T18:36:57.752Z,1.60
2022-08-10T18:39:30.920Z,1.60
2022-08-10T18:42:09.817Z,1.80
2022-08-10T18:44:43.640Z,2.20
2022-08-10T18:47:17.355Z,2.80
2022-08-10T18:50:02.962Z,2.40
2022-08-10T18:52:34.932Z,3.10
2022-08-10T18:55:24.532Z,2.15
2022-08-10T18:58:26.497Z,2.33
2022-08-10T19:01:12.910Z,2.60
2022-08-10T19:03:57.204Z,1.70
2022-08-10T19:07:03.769Z,2.00
2022-08-10T19:09:48.277Z,2.65
2022-08-10T19:12:33.746Z,2.10
2022-08-10T19:15:14.764Z,2.67
2022-08-10T19:18:03.133Z,2.73
2022-08-10T19:20:42.388Z,2.10
2022-08-10T19:23:19.615Z,2.70
2022-08-10T19:26:39.360Z,2.60
2022-08-10T19:28:58.620Z,2.40
2022-08-10T19:31:44.531Z,3.20
2022-08-10T19:34:27.434Z,2.27
2022-08-10T19:37:06.012Z,2.63
2022-08-10T19:39:50.667Z,3.20
2022-08-10T19:42:31.413Z,2.90
2022-08-10T19:46:01.866Z,2.53
2022-08-10T19:48:13.044Z,2.50
2022-08-10T19:50:45.846Z,2.27
2022-08-10T19:53:26.522Z,2.40
2022-08-10T19:56:24.301Z,3.10
2022-08-10T19:59:09.034Z,2.10
2022-08-10T20:01:55.249Z,2.30
2022-08-10T20:04:31.921Z,2.30
2022-08-10T20:07:15.052Z,2.50
2022-08-10T20:09:50.348Z,2.20
2022-08-10T20:12:36.319Z,2.30
2022-08-10T20:15:08.760Z,2.43
2022-08-10T20:17:51.574Z,2.87
2022-08-10T20:20:31.499Z,2.53
2022-08-10T20:23:11.896Z,2.43
2022-08-10T20:25:47.405Z,2.10
2022-08-10T20:28:21.579Z,2.23
2022-08-10T20:30:54.134Z,2.40
2022-08-10T20:33:33.156Z,2.43
2022-08-10T20:36:06.067Z,2.30
2022-08-10T20:38:42.135Z,2.40
2022-08-10T20:41:19.850Z,2.27
2022-08-10T20:43:59.501Z,2.60
2022-08-10T20:46:33.698Z,2.47
2022-08-10T20:49:17.702Z,2.50
2022-08-10T20:51:57.267Z,2.70
2022-08-10T20:54:33.674Z,2.20
2022-08-10T20:57:55.524Z,2.90
2022-08-10T21:00:17.168Z,2.90
2022-08-10T21:03:07.747Z,2.50
2022-08-10T21:06:00.233Z,2.57
2022-08-10T21:08:50.041Z,2.67
2022-08-10T21:11:35.239Z,2.53
2022-08-10T21:14:29.324Z,2.40
2022-08-10T21:17:15.353Z,2.47
2022-08-10T21:20:19.456Z,1.83
2022-08-10T21:23:05.845Z,2.47
2022-08-10T21:25:47.952Z,2.60
2022-08-10T21:28:47.349Z,2.77
2022-08-10T21:31:37.430Z,3.03
2022-08-10T21:34:19.443Z,2.50
2022-08-10T21:37:07.746Z,2.63
2022-08-10T21:39:50.996Z,2.63
2022-08-10T21:42:54.240Z,2.60
2022-08-10T21:46:00.058Z,2.50
2022-08-10T21:48:57.658Z,3.03
2022-08-10T21:52:01.944Z,2.90
2022-08-10T21:55:00.864Z,3.57
2022-08-10T21:58:05.459Z,2.90
2022-08-10T22:00:56.478Z,2.87
2022-08-10T22:03:43.563Z,2.83
2022-08-10T22:06:32.704Z,3.27
2022-08-10T22:09:24.675Z,3.40
2022-08-10T22:12:25.085Z,3.30
2022-08-10T22:16:04.023Z,3.43
2022-08-10T22:18:36.341Z,3.10
2022-08-10T22:24:53.979Z,3.33
2022-08-10T22:27:49.984Z,3.47
2022-08-10T22:30:39.051Z,3.60
2022-08-10T22:31:26.031Z,3.43
2022-08-10T22:33:42.107Z,3.10
2022-08-10T22:36:51.222Z,3.30
2022-08-10T22:40:11.060Z,3.10
2022-08-10T22:42:59.266Z,3.07
2022-08-10T22:46:03.608Z,3.57
2022-08-10T22:48:50.761Z,2.70
2022-08-10T22:51:24.634Z,3.30
2022-08-10T22:54:30.763Z,2.83
2022-08-10T22:57:19.618Z,3.10
2022-08-10T22:59:50.466Z,3.17
2022-08-10T23:02:30.356Z,2.90
2022-08-10T23:05:07.028Z,3.37
2022-08-10T23:07:40.425Z,3.03
2022-08-10T23:10:12.891Z,2.40
2022-08-10T23:12:49.008Z,2.97
2022-08-10T23:15:46.309Z,3.13
2022-08-10T23:18:39.647Z,3.10
2022-08-10T23:21:14.129Z,2.83
2022-08-10T23:23:44.186Z,3.00
2022-08-10T23:26:16.750Z,3.10
2022-08-10T23:28:58.154Z,2.97
2022-08-10T23:31:51.861Z,2.83
2022-08-10T23:34:22.685Z,2.87
2022-08-10T23:36:53.424Z,3.20
2022-08-10T23:39:31.230Z,3.00
2022-08-10T23:42:07.451Z,2.87
2022-08-10T23:44:41.882Z,3.07
2022-08-10T23:47:13.200Z,3.77
2022-08-10T23:49:46.136Z,3.00
2022-08-10T23:52:19.696Z,3.13
2022-08-10T23:54:51.493Z,3.03
2022-08-10T23:57:24.181Z,3.23
2022-08-10T23:59:56.818Z,2.83
